Terminal Aerodrome Forecast
Issued by NWS Pocatello, ID

Home | Current Version | Previous Version | Text Only | Print | Product List | Glossary On
Versions: 1 2 3 4 5 6 7 8 9 10 11 12 13 14 15 16 17 18 19 20 21 22 23
000
FTUS45 KPIH 181100
TAFPIH
TAF
KPIH 181120Z 1812/1912 23020G30KT P6SM VCSH BKN100
      TEMPO 1813/1816 6SM -SHRA BKN025 OVC040
     FM182100 23018G28KT P6SM SCT040 BKN070
     FM190300 22010KT P6SM BKN080=

USA.gov is the U.S. government's official web portal to all federal, state and local government web resources and services.